createdAt,value
2023-04-14T00:00:37.957Z,1.00
2023-04-14T00:03:04.677Z,3.75
2023-04-14T00:05:32.123Z,0.50
2023-04-14T00:07:58.904Z,0.50
2023-04-14T00:10:26.941Z,0.50
2023-04-14T00:12:53.769Z,1.00
2023-04-14T00:15:20.862Z,1.00
2023-04-14T00:17:47.582Z,0.25
2023-04-14T00:20:15.890Z,1.00
2023-04-14T00:22:42.582Z,1.00
2023-04-14T00:25:09.612Z,1.00
2023-04-14T00:27:37.711Z,1.50
2023-04-14T00:30:04.908Z,2.00
2023-04-14T00:32:31.605Z,1.50
2023-04-14T00:34:58.341Z,1.75
2023-04-14T00:37:24.959Z,0.50
2023-04-14T00:39:51.618Z,2.00
2023-04-14T00:42:18.263Z,1.00
2023-04-14T00:44:46.334Z,1.50
2023-04-14T00:47:13.111Z,2.00
2023-04-14T00:49:40.035Z,2.00
2023-04-14T00:52:06.817Z,1.00
2023-04-14T00:54:34.844Z,1.50
2023-04-14T00:57:02.735Z,1.75
2023-04-14T00:59:29.519Z,2.00
2023-04-14T01:01:58.173Z,2.00
2023-04-14T01:04:33.684Z,3171.80
2023-04-14T01:07:07.575Z,6.50
2023-04-14T01:09:34.497Z,2389.80
2023-04-14T01:12:12.001Z,2.00
2023-04-14T01:14:44.841Z,3.00
2023-04-14T01:17:19.862Z,3474.60
2023-04-14T01:20:06.073Z,2440.60
2023-04-14T01:22:37.784Z,1255.00
2023-04-14T01:25:27.978Z,4.00
2023-04-14T01:28:14.036Z,1114.25
2023-04-14T01:30:57.290Z,4.25
2023-04-14T01:33:30.307Z,3.75
2023-04-14T01:36:03.961Z,2411.60
2023-04-14T01:38:33.866Z,3.75
2023-04-14T01:41:05.301Z,2.75
2023-04-14T01:43:34.178Z,4.00
2023-04-14T01:46:05.141Z,3.00
2023-04-14T01:48:33.898Z,9.75
2023-04-14T01:51:02.374Z,600.75
2023-04-14T01:53:32.617Z,1032.50
2023-04-14T01:56:01.549Z,1535.60
2023-04-14T01:58:28.921Z,5.00
2023-04-14T02:00:57.048Z,2.00
2023-04-14T02:03:25.642Z,2.00
2023-04-14T02:05:55.682Z,83.40
2023-04-14T02:08:24.354Z,1.25
2023-04-14T02:10:54.880Z,2929.25
2023-04-14T02:13:23.932Z,2.50
2023-04-14T02:15:51.863Z,1.00
2023-04-14T02:18:19.791Z,4078.33
2023-04-14T02:20:48.548Z,1.00
2023-04-14T02:23:16.546Z,1.00
2023-04-14T02:25:52.033Z,1.00
2023-04-14T02:28:21.408Z,257.20
2023-04-14T02:30:51.494Z,3763.25
2023-04-14T02:33:21.808Z,3355.20
2023-04-14T02:35:58.280Z,1.00
2023-04-14T02:38:34.886Z,1.00
2023-04-14T02:41:07.276Z,1230.40
2023-04-14T02:43:44.047Z,104.00
2023-04-14T02:46:16.400Z,2899.80
2023-04-14T02:48:44.813Z,2481.40
2023-04-14T02:51:14.458Z,2664.75
2023-04-14T02:53:42.804Z,1629.60
2023-04-14T02:56:09.932Z,1234.80
2023-04-14T02:58:37.640Z,1.75
2023-04-14T03:01:05.458Z,1224.80
2023-04-14T03:03:32.769Z,840.75
2023-04-14T03:05:59.899Z,2.50
2023-04-14T03:08:27.984Z,813.00
2023-04-14T03:10:57.142Z,1.75
2023-04-14T03:13:28.219Z,426.80
2023-04-14T03:15:56.408Z,3.00
2023-04-14T03:18:24.164Z,54.60
2023-04-14T03:20:51.513Z,691.67
2023-04-14T03:23:21.283Z,3281.20
2023-04-14T03:25:48.516Z,2650.00
2023-04-14T03:28:20.279Z,834.25
2023-04-14T03:30:51.222Z,1223.20
2023-04-14T03:33:23.455Z,3976.75
2023-04-14T03:35:52.844Z,3752.80
2023-04-14T03:38:20.603Z,2129.00
2023-04-14T03:40:48.148Z,253.40
2023-04-14T03:43:17.501Z,3683.00
2023-04-14T03:45:44.411Z,1617.40
2023-04-14T03:48:15.198Z,2661.75
2023-04-14T03:50:43.423Z,2945.00
2023-04-14T03:53:11.321Z,311.60
2023-04-14T03:55:40.495Z,2.50
2023-04-14T03:58:11.958Z,671.00
2023-04-14T04:00:41.392Z,2197.00
2023-04-14T04:03:09.852Z,1959.00
2023-04-14T04:05:38.092Z,2332.50
2023-04-14T04:08:06.695Z,1732.60
2023-04-14T04:10:34.666Z,2874.00
2023-04-14T04:13:02.343Z,3783.00
2023-04-14T04:15:31.593Z,608.80
2023-04-14T04:18:00.387Z,6.50
2023-04-14T04:20:30.605Z,1427.75
2023-04-14T04:23:00.910Z,9.00
2023-04-14T04:25:27.470Z,5.75
2023-04-14T04:27:54.306Z,3574.40
2023-04-14T04:30:24.001Z,6.25
2023-04-14T04:32:50.882Z,2039.20
2023-04-14T04:35:20.976Z,1330.00
2023-04-14T04:37:48.854Z,710.50
2023-04-14T04:40:15.640Z,2955.25
2023-04-14T04:42:42.346Z,2443.80
2023-04-14T04:45:10.049Z,2044.00
2023-04-14T04:47:36.728Z,3488.75
2023-04-14T04:50:03.749Z,4013.00
2023-04-14T04:52:31.728Z,2480.40
2023-04-14T04:54:58.342Z,2353.00
2023-04-14T04:57:24.978Z,3.50
2023-04-14T04:59:51.619Z,4084.25
2023-04-14T05:02:18.255Z,1721.40
2023-04-14T05:04:45.068Z,213.00
2023-04-14T05:07:11.707Z,1855.25
2023-04-14T05:09:39.770Z,3220.00
2023-04-14T05:12:06.781Z,1538.00
2023-04-14T05:14:33.330Z,1239.33
2023-04-14T05:16:59.921Z,4.50
2023-04-14T05:19:26.528Z,1769.33
2023-04-14T05:21:53.142Z,2732.60
2023-04-14T05:24:20.747Z,3.25
2023-04-14T05:27:09.462Z,3939.00
2023-04-14T05:29:35.252Z,3767.00
2023-04-14T05:32:02.870Z,3424.75
2023-04-14T05:34:29.496Z,622.00
2023-04-14T05:36:56.061Z,58.60
2023-04-14T05:39:22.739Z,3749.75
2023-04-14T05:41:56.557Z,2845.20
2023-04-14T05:44:23.233Z,3239.00
2023-04-14T05:46:50.932Z,3493.67
2023-04-14T05:49:17.650Z,498.60
2023-04-14T05:51:44.283Z,2050.00
2023-04-14T05:54:10.900Z,3700.00
2023-04-14T05:56:37.520Z,3527.20
2023-04-14T05:59:05.616Z,3998.40
2023-04-14T06:01:32.328Z,1601.40
2023-04-14T06:03:59.155Z,3537.40
2023-04-14T06:06:27.217Z,4001.75
2023-04-14T06:08:53.783Z,3721.00
2023-04-14T06:11:20.428Z,4116.00
2023-04-14T06:13:47.036Z,3851.60
2023-04-14T06:16:16.195Z,3955.60
2023-04-14T06:18:43.001Z,1942.75
2023-04-14T06:21:09.691Z,3973.00
2023-04-14T06:23:36.267Z,3596.00
2023-04-14T06:26:03.619Z,3989.20
2023-04-14T06:28:30.177Z,3989.75
2023-04-14T06:30:56.874Z,4015.40
2023-04-14T06:33:24.980Z,3564.80
2023-04-14T06:35:51.652Z,3862.40
2023-04-14T06:38:19.036Z,2988.80
2023-04-14T06:40:45.678Z,4017.20
2023-04-14T06:43:12.234Z,4015.40
2023-04-14T06:45:38.883Z,3541.60
2023-04-14T06:48:07.537Z,3976.00
2023-04-14T06:50:36.638Z,3763.50
2023-04-14T06:53:03.248Z,4048.60
2023-04-14T06:55:29.849Z,3923.20
2023-04-14T06:57:56.408Z,4037.50
2023-04-14T07:00:23.487Z,3915.75
2023-04-14T07:02:50.150Z,3771.50
2023-04-14T07:05:16.841Z,3985.20
2023-04-14T07:07:44.925Z,3055.25
2023-04-14T07:10:11.514Z,3952.50
2023-04-14T07:12:38.167Z,3640.00
2023-04-14T07:15:06.637Z,3960.80
2023-04-14T07:17:35.825Z,2586.00
2023-04-14T07:20:02.664Z,3879.00
2023-04-14T07:22:29.228Z,2374.20
2023-04-14T07:24:57.341Z,2974.00
2023-04-14T07:27:25.934Z,4020.75
2023-04-14T07:29:52.531Z,2654.00
2023-04-14T07:32:19.124Z,3959.60
2023-04-14T07:34:46.728Z,3923.80
2023-04-14T07:37:13.324Z,3934.80
2023-04-14T07:39:40.235Z,3927.40
2023-04-14T07:42:08.220Z,3734.60
2023-04-14T07:44:34.973Z,3913.20
2023-04-14T07:47:02.562Z,3637.40
2023-04-14T07:49:29.146Z,3957.00
2023-04-14T07:51:55.855Z,3692.40
2023-04-14T07:54:22.593Z,3914.25
2023-04-14T07:56:50.263Z,3854.80
2023-04-14T07:59:18.293Z,3600.00
2023-04-14T08:01:46.014Z,452.60
2023-04-14T08:04:13.052Z,3916.80
2023-04-14T08:06:39.789Z,3563.00
2023-04-14T08:09:06.509Z,3900.00
2023-04-14T08:11:33.186Z,3270.20
2023-04-14T08:13:59.793Z,3933.75
2023-04-14T08:16:28.756Z,2785.33
2023-04-14T08:18:57.717Z,2837.25
2023-04-14T08:21:24.640Z,3159.80
2023-04-14T08:23:51.650Z,3916.80
2023-04-14T08:26:19.293Z,3696.75
2023-04-14T08:28:45.861Z,3841.80
2023-04-14T08:31:13.494Z,3961.50
2023-04-14T08:33:41.540Z,3894.80
2023-04-14T08:36:08.302Z,1377.50
2023-04-14T08:38:34.971Z,3933.40
2023-04-14T08:41:07.160Z,3979.60
2023-04-14T08:43:34.138Z,3902.40
2023-04-14T08:46:01.656Z,3923.60
2023-04-14T08:48:30.552Z,3909.20
2023-04-14T08:51:06.547Z,3884.00
2023-04-14T08:53:33.399Z,3751.40
2023-04-14T08:56:03.710Z,3900.20
2023-04-14T08:58:30.879Z,3625.60
2023-04-14T09:00:58.555Z,3911.00
2023-04-14T09:03:25.458Z,3540.00
2023-04-14T09:05:52.834Z,3732.50
2023-04-14T09:08:21.499Z,3873.80
2023-04-14T09:10:48.750Z,3872.67
2023-04-14T09:13:16.911Z,3859.80
2023-04-14T09:15:43.923Z,3841.60
2023-04-14T09:18:11.168Z,3845.60
2023-04-14T09:20:41.012Z,3864.25
2023-04-14T09:23:09.102Z,3639.60
2023-04-14T09:25:38.160Z,3873.20
2023-04-14T09:28:05.059Z,3845.40
2023-04-14T09:30:32.107Z,3849.00
2023-04-14T09:32:58.938Z,3788.50
2023-04-14T09:35:43.400Z,3733.20
2023-04-14T09:38:10.083Z,3763.40
2023-04-14T09:40:38.103Z,3767.25
2023-04-14T09:43:04.805Z,3720.60
2023-04-14T09:45:43.232Z,1169.60
2023-04-14T09:48:10.601Z,3725.40
2023-04-14T09:50:56.416Z,3738.25
2023-04-14T09:53:25.636Z,3773.20
2023-04-14T09:55:53.831Z,3705.25
2023-04-14T09:58:20.916Z,3747.80
2023-04-14T10:00:47.929Z,3680.50
2023-04-14T10:03:14.736Z,3763.00
2023-04-14T10:05:46.284Z,3659.25
2023-04-14T10:08:12.942Z,3746.50
2023-04-14T10:10:39.792Z,3736.25
2023-04-14T10:13:07.802Z,3.00
2023-04-14T10:15:34.622Z,227.40
2023-04-14T10:18:02.021Z,3634.80
2023-04-14T10:20:29.663Z,3747.80
2023-04-14T10:22:56.926Z,3783.40
2023-04-14T10:25:25.615Z,2271.80
2023-04-14T10:27:52.723Z,3601.60
2023-04-14T10:30:21.290Z,3753.60
2023-04-14T10:32:48.216Z,3643.60
2023-04-14T10:35:16.325Z,3728.60
2023-04-14T10:37:49.699Z,3812.25
2023-04-14T10:40:16.297Z,3161.60
2023-04-14T10:42:52.758Z,1723.25
2023-04-14T10:45:21.356Z,3208.20
2023-04-14T10:47:49.312Z,756.20
2023-04-14T10:50:17.257Z,3314.80
2023-04-14T10:52:50.240Z,1892.40
2023-04-14T10:55:16.896Z,3654.20
2023-04-14T10:57:45.573Z,507.00
2023-04-14T11:00:31.704Z,811.00
2023-04-14T11:03:03.075Z,53.00
2023-04-14T11:05:32.811Z,3779.60
2023-04-14T11:08:02.666Z,2465.25
2023-04-14T11:10:33.078Z,2.00
2023-04-14T11:13:04.655Z,0.75
2023-04-14T11:15:51.428Z,2694.20
2023-04-14T11:18:21.203Z,35.80
2023-04-14T11:20:51.336Z,7.50
2023-04-14T11:23:18.191Z,3826.75
2023-04-14T11:25:45.063Z,8.75
2023-04-14T11:28:11.694Z,6.75
2023-04-14T11:30:40.945Z,32.25
2023-04-14T11:33:08.963Z,416.25
2023-04-14T11:35:35.647Z,10.50
2023-04-14T11:38:02.315Z,5.50
2023-04-14T11:40:29.004Z,4.75
2023-04-14T11:42:57.187Z,9.25
2023-04-14T11:45:28.062Z,45.00
2023-04-14T11:47:58.752Z,1.00
2023-04-14T11:50:29.625Z,1.00
2023-04-14T11:52:56.237Z,1.00
2023-04-14T11:55:22.905Z,2.00
2023-04-14T11:57:49.565Z,2.25
2023-04-14T12:00:16.693Z,0.50
2023-04-14T12:02:44.413Z,3821.00
2023-04-14T12:05:11.817Z,1.00
2023-04-14T12:07:42.869Z,1.00
2023-04-14T12:10:10.795Z,1.75
2023-04-14T12:12:37.466Z,1.75
2023-04-14T12:15:05.072Z,6.00
2023-04-14T12:17:32.102Z,9.25
2023-04-14T12:19:58.792Z,2.00
2023-04-14T12:22:26.129Z,3764.75
2023-04-14T12:24:55.310Z,40.67
2023-04-14T12:27:23.648Z,3835.50
2023-04-14T12:29:51.222Z,3862.00
2023-04-14T12:32:18.436Z,26.75
2023-04-14T12:34:53.335Z,408.25
2023-04-14T12:37:24.753Z,284.40
2023-04-14T12:39:52.317Z,26.25
2023-04-14T12:42:20.652Z,416.00
2023-04-14T12:44:58.649Z,28.75
2023-04-14T12:47:30.217Z,21.75
2023-04-14T12:49:57.532Z,18.75
2023-04-14T12:52:37.333Z,10.75
2023-04-14T12:55:04.988Z,6.25
2023-04-14T12:57:34.349Z,7.75
2023-04-14T13:00:01.522Z,4.50
2023-04-14T13:02:29.095Z,4.75
2023-04-14T13:04:55.961Z,6.75
2023-04-14T13:07:23.171Z,7.25
2023-04-14T13:09:50.338Z,5.50
2023-04-14T13:12:17.061Z,8.25
2023-04-14T13:14:45.302Z,17.25
2023-04-14T13:17:11.962Z,31.00
2023-04-14T13:19:38.754Z,31.50
2023-04-14T13:22:05.556Z,22.50
2023-04-14T13:24:32.240Z,28.75
2023-04-14T13:26:58.850Z,17.75
2023-04-14T13:29:25.531Z,23.00
2023-04-14T13:31:53.673Z,13.25
2023-04-14T13:34:20.398Z,8.00
2023-04-14T13:36:47.039Z,33.67
2023-04-14T13:39:13.708Z,38.00
2023-04-14T13:41:40.298Z,203.20
2023-04-14T13:44:06.894Z,904.00
2023-04-14T13:46:40.496Z,11.50
2023-04-14T13:49:09.099Z,49.00
2023-04-14T13:51:35.708Z,47.60
2023-04-14T13:54:02.311Z,63.25
2023-04-14T13:56:28.895Z,1.00
2023-04-14T13:58:56.536Z,4.25
2023-04-14T14:01:23.341Z,56.75
2023-04-14T14:03:50.754Z,40.00
2023-04-14T14:06:19.058Z,328.80
2023-04-14T14:08:45.745Z,10.00
2023-04-14T14:11:12.321Z,24.75
2023-04-14T14:13:39.373Z,34.33
2023-04-14T14:16:07.103Z,58.40
2023-04-14T14:18:35.628Z,68.40
2023-04-14T14:21:02.375Z,7.75
2023-04-14T14:23:30.582Z,21.00
2023-04-14T14:25:57.191Z,6.75
2023-04-14T14:28:23.769Z,38.50
2023-04-14T14:30:50.370Z,50.75
2023-04-14T14:33:16.989Z,65.40
2023-04-14T14:35:44.017Z,12.50
2023-04-14T14:38:10.697Z,27.25
2023-04-14T14:40:39.206Z,17.75
2023-04-14T14:43:05.767Z,18.50
2023-04-14T14:45:33.345Z,12.50
2023-04-14T14:48:00.897Z,19.25
2023-04-14T14:50:27.568Z,30.75
2023-04-14T14:52:54.136Z,30.00
2023-04-14T14:55:20.981Z,10.00
2023-04-14T14:57:49.045Z,6.25
2023-04-14T15:00:16.136Z,5.25
2023-04-14T15:02:42.850Z,8.50
2023-04-14T15:05:09.781Z,8.00
2023-04-14T15:07:36.445Z,3.00
2023-04-14T15:10:03.286Z,13.00
2023-04-14T15:12:29.930Z,3.00
2023-04-14T15:14:58.085Z,0.00
2023-04-14T15:17:24.802Z,3.75
2023-04-14T15:19:51.501Z,0.50
2023-04-14T15:22:18.170Z,1.00
2023-04-14T15:24:44.869Z,0.00
2023-04-14T15:27:11.483Z,1.50
2023-04-14T15:29:38.106Z,6.75
2023-04-14T15:32:06.199Z,11.75
2023-04-14T15:34:32.916Z,24.60
2023-04-14T15:36:59.588Z,53.25
2023-04-14T15:39:26.272Z,15.00
2023-04-14T15:41:52.887Z,31.75
2023-04-14T15:44:19.643Z,14.25
2023-04-14T15:46:46.265Z,6.25
2023-04-14T15:49:14.227Z,16.50
2023-04-14T15:51:40.962Z,11.00
2023-04-14T15:54:07.542Z,1.00
2023-04-14T15:56:34.217Z,1.25
2023-04-14T15:59:00.974Z,31.67
2023-04-14T16:01:27.581Z,1.75
2023-04-14T16:03:54.232Z,1.00
2023-04-14T16:06:22.234Z,1.25
2023-04-14T16:08:50.015Z,1.00
2023-04-14T16:11:16.791Z,1.00
2023-04-14T16:13:43.513Z,1.00
2023-04-14T16:16:10.207Z,1.00
2023-04-14T16:18:36.816Z,1.25
2023-04-14T16:21:03.868Z,0.00
2023-04-14T16:23:31.831Z,19.20
2023-04-14T16:25:58.488Z,25.80
2023-04-14T16:28:25.216Z,0.00
2023-04-14T16:30:51.829Z,1.00
2023-04-14T16:33:18.729Z,1.00
2023-04-14T16:35:45.289Z,0.50
2023-04-14T16:38:12.139Z,0.00
2023-04-14T16:40:40.116Z,0.00
2023-04-14T16:43:10.158Z,22.80
2023-04-14T16:45:37.817Z,0.50
2023-04-14T16:48:04.572Z,0.50
2023-04-14T16:50:31.230Z,0.25
2023-04-14T16:52:57.796Z,111.00
2023-04-14T16:55:24.494Z,1206.20
2023-04-14T16:57:52.481Z,1185.40
2023-04-14T17:00:19.451Z,52.80
2023-04-14T17:02:46.202Z,66.60
2023-04-14T17:05:13.225Z,67.60
2023-04-14T17:07:40.063Z,60.20
2023-04-14T17:10:07.283Z,444.40
2023-04-14T17:12:33.989Z,151.60
2023-04-14T17:15:01.979Z,27.80
2023-04-14T17:17:28.626Z,508.20
2023-04-14T17:19:56.858Z,74.50
2023-04-14T17:22:24.639Z,1121.75
2023-04-14T17:24:51.672Z,61.00
2023-04-14T17:27:18.393Z,71.80
2023-04-14T17:29:44.960Z,5.75
2023-04-14T17:32:13.395Z,4.75
2023-04-14T17:34:40.258Z,222.00
2023-04-14T17:37:07.010Z,17.50
2023-04-14T17:39:33.717Z,7.50
2023-04-14T17:42:00.333Z,8.25
2023-04-14T17:44:31.190Z,35.00
2023-04-14T17:46:57.857Z,1400.25
2023-04-14T17:49:25.886Z,1192.20
2023-04-14T17:51:52.477Z,116.60
2023-04-14T17:54:20.822Z,8.25
2023-04-14T17:56:48.298Z,2669.60
2023-04-14T17:59:15.196Z,1768.80
2023-04-14T18:01:41.916Z,918.40
2023-04-14T18:04:08.991Z,518.20
2023-04-14T18:06:37.112Z,1810.00
2023-04-14T18:09:04.076Z,3800.80
2023-04-14T18:11:30.739Z,1269.80
2023-04-14T18:13:57.789Z,2324.00
2023-04-14T18:16:24.749Z,15.00
2023-04-14T18:18:51.359Z,32.67
2023-04-14T18:21:18.184Z,9.50
2023-04-14T18:24:47.859Z,10.25
2023-04-14T18:26:32.719Z,30.50
2023-04-14T18:28:59.871Z,412.00
2023-04-14T18:31:26.671Z,405.50
2023-04-14T18:33:53.240Z,16.50
2023-04-14T18:36:19.880Z,29.33
2023-04-14T18:38:47.904Z,23.50
2023-04-14T18:41:14.514Z,10.00
2023-04-14T18:43:41.111Z,4.25
2023-04-14T18:46:08.049Z,18.40
2023-04-14T18:48:34.742Z,1.75
2023-04-14T18:51:01.924Z,2.25
2023-04-14T18:53:28.721Z,798.00
2023-04-14T18:55:56.732Z,33.80
2023-04-14T18:58:23.311Z,17.25
2023-04-14T19:00:50.859Z,3.00
2023-04-14T19:03:17.594Z,4.25
2023-04-14T19:05:44.269Z,3.75
2023-04-14T19:08:10.881Z,4.75
2023-04-14T19:10:37.537Z,16.25
2023-04-14T19:13:05.456Z,7.50
2023-04-14T19:15:32.144Z,2.25
2023-04-14T19:17:58.860Z,8.75
2023-04-14T19:20:25.514Z,10.50
2023-04-14T19:22:52.166Z,10.00
2023-04-14T19:25:18.897Z,7.00
2023-04-14T19:27:45.500Z,10.50
2023-04-14T19:30:14.685Z,1.50
2023-04-14T19:32:41.671Z,6.25
2023-04-14T19:35:09.655Z,5.00
2023-04-14T19:37:37.305Z,0.75
2023-04-14T19:40:04.961Z,0.00
2023-04-14T19:42:34.152Z,8.00
2023-04-14T19:45:02.129Z,9.00
2023-04-14T19:47:30.158Z,24.75
2023-04-14T19:49:56.771Z,21.50
2023-04-14T19:52:23.429Z,40.60
2023-04-14T19:54:50.100Z,18.25
2023-04-14T19:57:17.865Z,14.00
2023-04-14T19:59:44.462Z,6.00
2023-04-14T20:02:11.111Z,8.25
2023-04-14T20:04:39.205Z,7.00
2023-04-14T20:07:05.982Z,9.00
2023-04-14T20:09:32.641Z,16.50
2023-04-14T20:12:00.121Z,15.00
2023-04-14T20:14:26.709Z,5.25
2023-04-14T20:16:53.432Z,3.25
2023-04-14T20:19:20.001Z,3.00
2023-04-14T20:21:47.979Z,3.00
2023-04-14T20:24:14.617Z,2.25
2023-04-14T20:26:41.181Z,3.50
2023-04-14T20:29:07.791Z,404.80
2023-04-14T20:31:34.384Z,10.75
2023-04-14T20:34:00.958Z,10.00
2023-04-14T20:36:27.524Z,16.00
2023-04-14T20:38:55.462Z,7.00
2023-04-14T20:41:22.111Z,12.50
2023-04-14T20:43:48.769Z,9.00
2023-04-14T20:46:15.686Z,8.75
2023-04-14T20:48:42.379Z,14.75
2023-04-14T20:51:08.947Z,11.25
2023-04-14T20:53:35.833Z,17.25
2023-04-14T20:56:04.053Z,22.25
2023-04-14T20:58:30.620Z,23.50
2023-04-14T21:00:57.241Z,22.50
2023-04-14T21:03:24.062Z,20.00
2023-04-14T21:05:50.908Z,22.00
2023-04-14T21:08:17.485Z,23.25
2023-04-14T21:11:14.541Z,24.00
2023-04-14T21:15:41.503Z,25.50
2023-04-14T21:16:18.681Z,24.25
2023-04-14T21:18:45.345Z,23.00
2023-04-14T21:21:12.092Z,23.75
2023-04-14T21:23:38.754Z,31.50
2023-04-14T21:26:05.389Z,337.00
2023-04-14T21:28:33.380Z,32.33
2023-04-14T21:31:00.209Z,22.75
2023-04-14T21:33:26.804Z,21.50
2023-04-14T21:35:54.294Z,21.50
2023-04-14T21:38:20.946Z,21.00
2023-04-14T21:40:47.634Z,28.25
2023-04-14T21:43:14.212Z,22.00
2023-04-14T21:45:42.378Z,12.75
2023-04-14T21:48:09.181Z,27.25
2023-04-14T21:50:36.872Z,24.50
2023-04-14T21:53:04.544Z,25.50
2023-04-14T21:55:31.276Z,24.75
2023-04-14T21:57:58.284Z,31.75
2023-04-14T22:00:24.946Z,35.80
2023-04-14T22:02:53.155Z,27.00
2023-04-14T22:05:19.871Z,75.00
2023-04-14T22:07:46.613Z,39.50
2023-04-14T22:10:13.386Z,28.25
2023-04-14T22:12:40.479Z,29.00
2023-04-14T22:15:08.154Z,435.40
2023-04-14T22:17:34.989Z,23.50
2023-04-14T22:20:05.812Z,26.75
2023-04-14T22:22:33.749Z,29.00
2023-04-14T22:25:00.703Z,26.75
2023-04-14T22:27:27.402Z,24.50
2023-04-14T22:29:53.998Z,22.25
2023-04-14T22:32:20.620Z,29.00
2023-04-14T22:34:47.267Z,26.00
2023-04-14T22:37:15.291Z,51.00
2023-04-14T22:39:41.967Z,26.25
2023-04-14T22:42:08.631Z,31.50
2023-04-14T22:44:35.240Z,26.50
2023-04-14T22:47:01.817Z,28.00
2023-04-14T22:49:28.394Z,25.25
2023-04-14T22:51:55.044Z,27.25
2023-04-14T22:54:22.967Z,27.00
2023-04-14T22:56:49.550Z,26.50
2023-04-14T22:59:16.174Z,29.25
2023-04-14T23:01:42.800Z,27.25
2023-04-14T23:04:09.724Z,29.25
2023-04-14T23:06:36.720Z,27.00
2023-04-14T23:09:03.533Z,29.00
2023-04-14T23:11:31.806Z,28.00
2023-04-14T23:13:58.405Z,29.00
2023-04-14T23:16:25.065Z,31.75
2023-04-14T23:18:51.704Z,26.25
2023-04-14T23:21:18.955Z,27.00
2023-04-14T23:23:45.839Z,27.00
2023-04-14T23:26:13.546Z,30.75
2023-04-14T23:28:41.555Z,39.67
2023-04-14T23:31:08.320Z,28.50
2023-04-14T23:33:34.945Z,30.75
2023-04-14T23:36:01.545Z,28.75
2023-04-14T23:38:28.204Z,30.50
2023-04-14T23:40:54.980Z,28.00
2023-04-14T23:43:21.637Z,28.75
2023-04-14T23:45:49.758Z,31.50
2023-04-14T23:48:16.362Z,31.00
2023-04-14T23:50:59.889Z,32.00
2023-04-14T23:53:29.601Z,33.25
2023-04-14T23:55:56.460Z,32.00
2023-04-14T23:58:26.750Z,71.20
